sensor_id;sensor_type;location;lat;lon;timestamp;pressure;altitude;pressure_sealevel;temperature;humidity
49473;BME280;67434;50.956;6.918;2023-02-13T00:01:14;103233.81;;;8.72;74.40
49473;BME280;67434;50.956;6.918;2023-02-13T00:03:39;103234.94;;;8.77;74.51
49473;BME280;67434;50.956;6.918;2023-02-13T00:06:06;103225.66;;;8.80;74.33
49473;BME280;67434;50.956;6.918;2023-02-13T00:08:32;103225.47;;;8.82;74.47
49473;BME280;67434;50.956;6.918;2023-02-13T00:10:57;103226.28;;;8.82;74.17
49473;BME280;67434;50.956;6.918;2023-02-13T00:13:23;103226.13;;;8.84;74.04
49473;BME280;67434;50.956;6.918;2023-02-13T00:15:59;103224.81;;;8.80;74.53
49473;BME280;67434;50.956;6.918;2023-02-13T00:18:26;103221.28;;;8.79;74.48
49473;BME280;67434;50.956;6.918;2023-02-13T00:21:08;103223.50;;;8.75;74.43
49473;BME280;67434;50.956;6.918;2023-02-13T00:23:35;103219.13;;;8.74;74.62
49473;BME280;67434;50.956;6.918;2023-02-13T00:26:05;103217.28;;;8.75;74.29
49473;BME280;67434;50.956;6.918;2023-02-13T00:28:31;103212.44;;;8.70;74.88
49473;BME280;67434;50.956;6.918;2023-02-13T00:31:08;103210.75;;;8.69;74.91
49473;BME280;67434;50.956;6.918;2023-02-13T00:33:35;103207.31;;;8.75;74.50
49473;BME280;67434;50.956;6.918;2023-02-13T00:36:09;103208.25;;;8.83;74.23
49473;BME280;67434;50.956;6.918;2023-02-13T00:38:37;103203.13;;;8.73;74.83
49473;BME280;67434;50.956;6.918;2023-02-13T00:41:03;103201.94;;;8.75;74.66
49473;BME280;67434;50.956;6.918;2023-02-13T00:43:29;103199.03;;;8.77;74.52
49473;BME280;67434;50.956;6.918;2023-02-13T00:45:57;103203.03;;;8.66;74.50
49473;BME280;67434;50.956;6.918;2023-02-13T00:48:23;103206.38;;;8.68;74.86
49473;BME280;67434;50.956;6.918;2023-02-13T00:50:49;103193.38;;;8.72;74.60
49473;BME280;67434;50.956;6.918;2023-02-13T00:53:17;103199.59;;;8.72;74.38
49473;BME280;67434;50.956;6.918;2023-02-13T00:55:43;103191.88;;;8.69;74.63
49473;BME280;67434;50.956;6.918;2023-02-13T00:58:08;103192.72;;;8.70;74.70
49473;BME280;67434;50.956;6.918;2023-02-13T01:00:33;103181.66;;;8.65;74.74
49473;BME280;67434;50.956;6.918;2023-02-13T01:03:00;103185.56;;;8.62;75.25
49473;BME280;67434;50.956;6.918;2023-02-13T01:05:31;103180.44;;;8.67;74.46
49473;BME280;67434;50.956;6.918;2023-02-13T01:08:05;103182.03;;;8.62;74.52
49473;BME280;67434;50.956;6.918;2023-02-13T01:10:31;103189.66;;;8.58;74.43
49473;BME280;67434;50.956;6.918;2023-02-13T01:12:56;103184.78;;;8.54;74.98
49473;BME280;67434;50.956;6.918;2023-02-13T01:15:22;103187.78;;;8.59;74.76
49473;BME280;67434;50.956;6.918;2023-02-13T01:17:48;103188.81;;;8.58;74.57
49473;BME280;67434;50.956;6.918;2023-02-13T01:20:14;103190.31;;;8.60;74.48
49473;BME280;67434;50.956;6.918;2023-02-13T01:22:45;103181.56;;;8.58;74.27
49473;BME280;67434;50.956;6.918;2023-02-13T01:25:10;103180.16;;;8.62;74.49
49473;BME280;67434;50.956;6.918;2023-02-13T01:27:36;103176.53;;;8.55;74.53
49473;BME280;67434;50.956;6.918;2023-02-13T01:30:04;103178.53;;;8.53;74.31
49473;BME280;67434;50.956;6.918;2023-02-13T01:32:30;103183.75;;;8.55;74.34
49473;BME280;67434;50.956;6.918;2023-02-13T01:34:55;103184.63;;;8.55;74.60
49473;BME280;67434;50.956;6.918;2023-02-13T01:37:20;103184.78;;;8.54;74.44
49473;BME280;67434;50.956;6.918;2023-02-13T01:39:46;103183.75;;;8.55;74.27
49473;BME280;67434;50.956;6.918;2023-02-13T01:42:15;103179.88;;;8.57;74.51
49473;BME280;67434;50.956;6.918;2023-02-13T01:47:25;103175.84;;;8.53;74.72
49473;BME280;67434;50.956;6.918;2023-02-13T01:53:01;103176.88;;;8.52;74.74
49473;BME280;67434;50.956;6.918;2023-02-13T01:55:30;103177.06;;;8.51;74.54
49473;BME280;67434;50.956;6.918;2023-02-13T01:58:04;103180.03;;;8.41;74.89
49473;BME280;67434;50.956;6.918;2023-02-13T02:00:31;103180.69;;;8.43;75.20
49473;BME280;67434;50.956;6.918;2023-02-13T02:03:04;103185.31;;;8.49;74.83
49473;BME280;67434;50.956;6.918;2023-02-13T02:05:33;103180.78;;;8.50;74.96
49473;BME280;67434;50.956;6.918;2023-02-13T02:08:01;103178.91;;;8.50;74.58
49473;BME280;67434;50.956;6.918;2023-02-13T02:10:28;103184.69;;;8.47;75.22
49473;BME280;67434;50.956;6.918;2023-02-13T02:13:02;103180.59;;;8.51;75.00
49473;BME280;67434;50.956;6.918;2023-02-13T02:15:29;103190.34;;;8.52;74.74
49473;BME280;67434;50.956;6.918;2023-02-13T02:17:55;103188.31;;;8.54;74.55
49473;BME280;67434;50.956;6.918;2023-02-13T02:44:06;103180.13;;;8.48;75.04
49473;BME280;67434;50.956;6.918;2023-02-13T02:48:32;103176.59;;;8.47;74.97
49473;BME280;67434;50.956;6.918;2023-02-13T02:51:38;103171.84;;;8.49;74.72
49473;BME280;67434;50.956;6.918;2023-02-13T02:54:12;103183.66;;;8.48;74.66
49473;BME280;67434;50.956;6.918;2023-02-13T02:57:04;103180.38;;;8.38;75.02
49473;BME280;67434;50.956;6.918;2023-02-13T02:59:31;103177.97;;;8.43;75.02
49473;BME280;67434;50.956;6.918;2023-02-13T03:02:16;103178.09;;;8.50;74.93
49473;BME280;67434;50.956;6.918;2023-02-13T03:05:20;103177.91;;;8.51;74.64
49473;BME280;67434;50.956;6.918;2023-02-13T03:08:05;103189.69;;;8.35;75.12
49473;BME280;67434;50.956;6.918;2023-02-13T03:10:33;103191.81;;;8.40;74.98
49473;BME280;67434;50.956;6.918;2023-02-13T03:13:47;103177.03;;;8.36;75.19
49473;BME280;67434;50.956;6.918;2023-02-13T03:16:17;103191.47;;;8.43;74.68
49473;BME280;67434;50.956;6.918;2023-02-13T03:19:03;103183.19;;;8.44;74.61
49473;BME280;67434;50.956;6.918;2023-02-13T03:25:04;103177.03;;;8.36;75.03
49473;BME280;67434;50.956;6.918;2023-02-13T03:27:56;103180.94;;;8.33;75.30
49473;BME280;67434;50.956;6.918;2023-02-13T03:33:53;103180.56;;;8.36;75.12
49473;BME280;67434;50.956;6.918;2023-02-13T03:36:40;103190.97;;;8.39;74.95
49473;BME280;67434;50.956;6.918;2023-02-13T03:39:47;103186.44;;;8.40;74.96
49473;BME280;67434;50.956;6.918;2023-02-13T03:42:17;103182.72;;;8.41;75.14
49473;BME280;67434;50.956;6.918;2023-02-13T03:44:50;103184.28;;;8.35;75.25
49473;BME280;67434;50.956;6.918;2023-02-13T03:47:38;103179.91;;;8.34;75.31
49473;BME280;67434;50.956;6.918;2023-02-13T03:50:07;103181.41;;;8.37;75.36
49473;BME280;67434;50.956;6.918;2023-02-13T03:52:59;103184.75;;;8.39;74.80
49473;BME280;67434;50.956;6.918;2023-02-13T03:55:36;103179.56;;;8.37;75.12
49473;BME280;67434;50.956;6.918;2023-02-13T03:58:28;103180.06;;;8.33;75.30
49473;BME280;67434;50.956;6.918;2023-02-13T04:01:17;103180.19;;;8.16;75.41
49473;BME280;67434;50.956;6.918;2023-02-13T04:04:10;103173.50;;;8.12;75.78
49473;BME280;67434;50.956;6.918;2023-02-13T04:06:41;103173.50;;;8.12;76.03
49473;BME280;67434;50.956;6.918;2023-02-13T04:09:09;103173.69;;;8.11;75.71
49473;BME280;67434;50.956;6.918;2023-02-13T04:12:00;103178.88;;;8.12;75.75
49473;BME280;67434;50.956;6.918;2023-02-13T04:14:35;103183.44;;;8.12;75.95
49473;BME280;67434;50.956;6.918;2023-02-13T04:17:24;103190.03;;;8.09;75.58
49473;BME280;67434;50.956;6.918;2023-02-13T04:19:51;103185.00;;;8.06;75.55
49473;BME280;67434;50.956;6.918;2023-02-13T04:22:17;103186.06;;;7.97;76.09
49473;BME280;67434;50.956;6.918;2023-02-13T04:24:44;103188.13;;;7.95;76.28
49473;BME280;67434;50.956;6.918;2023-02-13T04:27:13;103190.63;;;7.97;76.07
49473;BME280;67434;50.956;6.918;2023-02-13T04:29:40;103187.75;;;7.98;76.08
49473;BME280;67434;50.956;6.918;2023-02-13T04:32:05;103193.16;;;7.98;76.35
49473;BME280;67434;50.956;6.918;2023-02-13T04:34:30;103188.28;;;7.94;76.11
49473;BME280;67434;50.956;6.918;2023-02-13T04:36:56;103193.38;;;7.89;76.60
49473;BME280;67434;50.956;6.918;2023-02-13T04:39:21;103195.06;;;7.90;76.20
49473;BME280;67434;50.956;6.918;2023-02-13T04:41:47;103187.34;;;7.87;76.49
49473;BME280;67434;50.956;6.918;2023-02-13T04:44:12;103190.56;;;7.82;76.32
49473;BME280;67434;50.956;6.918;2023-02-13T04:46:37;103188.56;;;7.76;76.63
49473;BME280;67434;50.956;6.918;2023-02-13T04:49:03;103195.31;;;7.72;76.94
49473;BME280;67434;50.956;6.918;2023-02-13T04:51:28;103185.56;;;7.71;77.01
49473;BME280;67434;50.956;6.918;2023-02-13T04:53:53;103185.81;;;7.61;77.29
49473;BME280;67434;50.956;6.918;2023-02-13T04:56:19;103185.69;;;7.55;77.29
49473;BME280;67434;50.956;6.918;2023-02-13T04:58:44;103179.19;;;7.41;77.94
49473;BME280;67434;50.956;6.918;2023-02-13T05:01:14;103188.00;;;7.27;78.44
49473;BME280;67434;50.956;6.918;2023-02-13T05:03:40;103180.47;;;7.22;78.36
49473;BME280;67434;50.956;6.918;2023-02-13T05:06:05;103179.66;;;7.13;78.51
49473;BME280;67434;50.956;6.918;2023-02-13T05:08:31;103184.19;;;7.05;79.01
49473;BME280;67434;50.956;6.918;2023-02-13T05:10:56;103182.22;;;6.99;79.22
49473;BME280;67434;50.956;6.918;2023-02-13T05:13:21;103183.09;;;6.91;79.38
49473;BME280;67434;50.956;6.918;2023-02-13T05:15:48;103188.81;;;6.88;79.53
49473;BME280;67434;50.956;6.918;2023-02-13T05:18:13;103184.28;;;6.88;79.62
49473;BME280;67434;50.956;6.918;2023-02-13T05:20:40;103186.16;;;6.80;79.90
49473;BME280;67434;50.956;6.918;2023-02-13T05:23:12;103185.81;;;6.75;80.13
49473;BME280;67434;50.956;6.918;2023-02-13T05:25:49;103178.41;;;6.69;80.24
49473;BME280;67434;50.956;6.918;2023-02-13T05:28:17;103182.97;;;6.60;80.49
49473;BME280;67434;50.956;6.918;2023-02-13T05:31:01;103185.69;;;6.52;80.82
49473;BME280;67434;50.956;6.918;2023-02-13T05:33:26;103183.69;;;6.46;81.26
49473;BME280;67434;50.956;6.918;2023-02-13T05:35:52;103189.72;;;6.48;81.12
49473;BME280;67434;50.956;6.918;2023-02-13T05:38:17;103192.09;;;6.43;81.47
49473;BME280;67434;50.956;6.918;2023-02-13T05:40:44;103197.81;;;6.40;81.49
49473;BME280;67434;50.956;6.918;2023-02-13T05:43:09;103197.47;;;6.35;81.52
49473;BME280;67434;50.956;6.918;2023-02-13T05:45:34;103194.94;;;6.33;81.78
49473;BME280;67434;50.956;6.918;2023-02-13T05:48:00;103188.75;;;6.33;81.65
49473;BME280;67434;50.956;6.918;2023-02-13T05:50:25;103192.59;;;6.22;82.46
49473;BME280;67434;50.956;6.918;2023-02-13T05:52:51;103192.06;;;6.18;82.01
49473;BME280;67434;50.956;6.918;2023-02-13T05:55:18;103199.63;;;6.15;82.51
49473;BME280;67434;50.956;6.918;2023-02-13T05:57:46;103203.00;;;6.09;82.69
49473;BME280;67434;50.956;6.918;2023-02-13T06:00:12;103197.63;;;6.09;82.59
49473;BME280;67434;50.956;6.918;2023-02-13T06:02:38;103197.63;;;6.01;83.15
49473;BME280;67434;50.956;6.918;2023-02-13T06:05:06;103200.31;;;6.01;83.09
49473;BME280;67434;50.956;6.918;2023-02-13T06:07:32;103198.25;;;5.94;83.09
49473;BME280;67434;50.956;6.918;2023-02-13T06:09:57;103203.13;;;5.91;83.37
49473;BME280;67434;50.956;6.918;2023-02-13T06:12:24;103199.59;;;5.90;83.47
49473;BME280;67434;50.956;6.918;2023-02-13T06:14:49;103199.88;;;5.79;83.69
49473;BME280;67434;50.956;6.918;2023-02-13T06:17:15;103203.75;;;5.77;84.01
49473;BME280;67434;50.956;6.918;2023-02-13T06:19:40;103198.38;;;5.77;84.21
49473;BME280;67434;50.956;6.918;2023-02-13T06:22:06;103200.38;;;5.75;84.04
49473;BME280;67434;50.956;6.918;2023-02-13T06:24:31;103199.38;;;5.68;84.50
49473;BME280;67434;50.956;6.918;2023-02-13T06:26:56;103193.34;;;5.65;84.07
49473;BME280;67434;50.956;6.918;2023-02-13T06:29:22;103190.16;;;5.70;84.19
49473;BME280;67434;50.956;6.918;2023-02-13T06:31:47;103193.19;;;5.75;84.22
49473;BME280;67434;50.956;6.918;2023-02-13T06:34:13;103195.34;;;5.72;84.18
49473;BME280;67434;50.956;6.918;2023-02-13T06:36:38;103196.69;;;5.68;84.30
49473;BME280;67434;50.956;6.918;2023-02-13T06:39:05;103197.34;;;5.61;84.58
49473;BME280;67434;50.956;6.918;2023-02-13T06:41:31;103192.97;;;5.60;84.90
49473;BME280;67434;50.956;6.918;2023-02-13T06:43:56;103195.28;;;5.55;84.61
49473;BME280;67434;50.956;6.918;2023-02-13T06:46:22;103195.00;;;5.58;84.91
49473;BME280;67434;50.956;6.918;2023-02-13T06:48:50;103195.00;;;5.58;84.63
49473;BME280;67434;50.956;6.918;2023-02-13T06:51:15;103193.81;;;5.61;84.33
49473;BME280;67434;50.956;6.918;2023-02-13T06:53:42;103193.81;;;5.61;84.37
49473;BME280;67434;50.956;6.918;2023-02-13T06:56:08;103199.34;;;5.59;84.32
49473;BME280;67434;50.956;6.918;2023-02-13T06:58:35;103192.31;;;5.58;84.24
49473;BME280;67434;50.956;6.918;2023-02-13T07:01:01;103183.94;;;5.61;84.28
49473;BME280;67434;50.956;6.918;2023-02-13T07:03:27;103189.63;;;5.58;84.29
49473;BME280;67434;50.956;6.918;2023-02-13T07:05:52;103186.78;;;5.68;83.72
49473;BME280;67434;50.956;6.918;2023-02-13T07:08:18;103186.97;;;5.67;83.84
49473;BME280;67434;50.956;6.918;2023-02-13T07:10:43;103188.81;;;5.74;83.55
49473;BME280;67434;50.956;6.918;2023-02-13T07:13:09;103191.50;;;5.74;83.29
49473;BME280;67434;50.956;6.918;2023-02-13T07:15:35;103195.03;;;5.75;83.59
49473;BME280;67434;50.956;6.918;2023-02-13T07:18:01;103198.03;;;5.80;83.09
49473;BME280;67434;50.956;6.918;2023-02-13T07:20:29;103194.53;;;5.87;82.76
49473;BME280;67434;50.956;6.918;2023-02-13T07:22:58;103192.34;;;5.83;82.69
49473;BME280;67434;50.956;6.918;2023-02-13T07:25:24;103201.06;;;5.85;82.66
49473;BME280;67434;50.956;6.918;2023-02-13T07:27:51;103197.72;;;5.83;83.02
49473;BME280;67434;50.956;6.918;2023-02-13T07:30:17;103195.91;;;5.91;82.60
49473;BME280;67434;50.956;6.918;2023-02-13T07:32:42;103194.22;;;5.90;82.23
49473;BME280;67434;50.956;6.918;2023-02-13T07:35:07;103203.97;;;5.91;82.51
49473;BME280;67434;50.956;6.918;2023-02-13T07:37:33;103205.47;;;5.94;82.55
49473;BME280;67434;50.956;6.918;2023-02-13T07:39:59;103211.88;;;6.01;81.77
49473;BME280;67434;50.956;6.918;2023-02-13T07:42:24;103204.66;;;6.02;81.83
49473;BME280;67434;50.956;6.918;2023-02-13T07:44:50;103210.38;;;5.99;81.68
49473;BME280;67434;50.956;6.918;2023-02-13T07:47:15;103209.53;;;6.06;81.69
49473;BME280;67434;50.956;6.918;2023-02-13T07:49:41;103213.56;;;6.10;81.59
49473;BME280;67434;50.956;6.918;2023-02-13T07:52:06;103208.19;;;6.10;81.52
49473;BME280;67434;50.956;6.918;2023-02-13T07:54:32;103202.31;;;6.15;81.12
49473;BME280;67434;50.956;6.918;2023-02-13T07:56:58;103203.50;;;6.12;81.21
49473;BME280;67434;50.956;6.918;2023-02-13T07:59:23;103215.56;;;6.16;81.01
49473;BME280;67434;50.956;6.918;2023-02-13T08:01:49;103204.16;;;6.22;80.73
49473;BME280;67434;50.956;6.918;2023-02-13T08:04:16;103204.34;;;6.21;80.70
49473;BME280;67434;50.956;6.918;2023-02-13T08:06:41;103197.31;;;6.36;80.10
49473;BME280;67434;50.956;6.918;2023-02-13T08:09:10;103204.50;;;6.44;79.66
49473;BME280;67434;50.956;6.918;2023-02-13T08:11:59;103199.97;;;6.52;79.43
49473;BME280;67434;50.956;6.918;2023-02-13T08:14:26;103207.50;;;6.57;79.26
49473;BME280;67434;50.956;6.918;2023-02-13T08:16:53;103204.13;;;6.63;78.95
49473;BME280;67434;50.956;6.918;2023-02-13T08:19:18;103206.00;;;6.63;78.84
49473;BME280;67434;50.956;6.918;2023-02-13T08:21:44;103216.94;;;6.69;78.55
49473;BME280;67434;50.956;6.918;2023-02-13T08:24:12;103208.84;;;6.77;78.19
49473;BME280;67434;50.956;6.918;2023-02-13T08:26:41;103213.88;;;6.80;78.31
49473;BME280;67434;50.956;6.918;2023-02-13T08:29:06;103211.50;;;6.85;78.08
49473;BME280;67434;50.956;6.918;2023-02-13T08:31:32;103207.81;;;6.86;77.97
49473;BME280;67434;50.956;6.918;2023-02-13T08:33:58;103208.63;;;6.87;78.03
49473;BME280;67434;50.956;6.918;2023-02-13T08:36:23;103205.59;;;6.90;77.72
49473;BME280;67434;50.956;6.918;2023-02-13T08:38:49;103228.41;;;7.02;77.36
49473;BME280;67434;50.956;6.918;2023-02-13T08:41:15;103217.13;;;7.15;76.47
49473;BME280;67434;50.956;6.918;2023-02-13T08:43:46;103213.75;;;7.21;76.44
49473;BME280;67434;50.956;6.918;2023-02-13T08:46:12;103215.94;;;7.17;76.73
49473;BME280;67434;50.956;6.918;2023-02-13T08:48:37;103219.13;;;7.21;76.41
49473;BME280;67434;50.956;6.918;2023-02-13T08:51:07;103224.34;;;7.22;76.63
49473;BME280;67434;50.956;6.918;2023-02-13T08:53:33;103221.97;;;7.28;76.38
49473;BME280;67434;50.956;6.918;2023-02-13T08:55:59;103219.28;;;7.28;75.89
49473;BME280;67434;50.956;6.918;2023-02-13T08:58:24;103220.78;;;7.30;76.06
49473;BME280;67434;50.956;6.918;2023-02-13T09:00:50;103220.91;;;7.37;75.12
49473;BME280;67434;50.956;6.918;2023-02-13T09:03:15;103219.38;;;7.42;75.36
49473;BME280;67434;50.956;6.918;2023-02-13T09:05:44;103217.84;;;7.48;74.93
49473;BME280;67434;50.956;6.918;2023-02-13T09:08:10;103221.22;;;7.42;74.96
49473;BME280;67434;50.956;6.918;2023-02-13T09:10:39;103213.63;;;7.53;74.79
49473;BME280;67434;50.956;6.918;2023-02-13T09:13:05;103225.16;;;7.62;74.81
49473;BME280;67434;50.956;6.918;2023-02-13T09:15:32;103220.41;;;7.72;74.33
49473;BME280;67434;50.956;6.918;2023-02-13T09:17:57;103218.91;;;7.70;74.23
49473;BME280;67434;50.956;6.918;2023-02-13T09:20:23;103212.16;;;7.74;74.02
49473;BME280;67434;50.956;6.918;2023-02-13T09:22:49;103217.31;;;7.83;73.97
49473;BME280;67434;50.956;6.918;2023-02-13T09:25:15;103209.00;;;7.93;73.32
49473;BME280;67434;50.956;6.918;2023-02-13T09:27:40;103207.44;;;7.99;73.15
49473;BME280;67434;50.956;6.918;2023-02-13T09:30:07;103206.91;;;8.03;72.87
49473;BME280;67434;50.956;6.918;2023-02-13T09:32:34;103209.78;;;8.02;72.52
49473;BME280;67434;50.956;6.918;2023-02-13T09:34:59;103215.53;;;7.99;72.47
49473;BME280;67434;50.956;6.918;2023-02-13T09:37:25;103207.56;;;8.05;72.43
49473;BME280;67434;50.956;6.918;2023-02-13T09:39:51;103204.97;;;8.12;72.02
49473;BME280;67434;50.956;6.918;2023-02-13T09:42:21;103213.25;;;8.10;71.68
49473;BME280;67434;50.956;6.918;2023-02-13T09:44:52;103213.53;;;8.15;71.91
49473;BME280;67434;50.956;6.918;2023-02-13T09:47:41;103223.91;;;8.27;71.41
49473;BME280;67434;50.956;6.918;2023-02-13T09:52:42;103226.97;;;8.24;71.18
49473;BME280;67434;50.956;6.918;2023-02-13T09:55:23;103211.41;;;8.34;70.92
49473;BME280;67434;50.956;6.918;2023-02-13T09:58:18;103211.56;;;8.32;70.96
49473;BME280;67434;50.956;6.918;2023-02-13T10:00:53;103211.34;;;8.42;70.91
49473;BME280;67434;50.956;6.918;2023-02-13T10:06:28;103205.94;;;8.42;70.17
49473;BME280;67434;50.956;6.918;2023-02-13T10:17:16;103209.38;;;8.73;69.68
49473;BME280;67434;50.956;6.918;2023-02-13T10:19:48;103210.31;;;8.81;69.39
49473;BME280;67434;50.956;6.918;2023-02-13T10:22:16;103204.81;;;8.89;68.98
49473;BME280;67434;50.956;6.918;2023-02-13T10:24:48;103205.13;;;8.94;68.50
49473;BME280;67434;50.956;6.918;2023-02-13T10:27:24;103208.16;;;8.91;68.28
49473;BME280;67434;50.956;6.918;2023-02-13T10:29:57;103212.19;;;8.95;68.66
49473;BME280;67434;50.956;6.918;2023-02-13T10:35:36;103204.09;;;9.09;67.86
49473;BME280;67434;50.956;6.918;2023-02-13T10:38:20;103202.50;;;9.00;67.55
49473;BME280;67434;50.956;6.918;2023-02-13T10:47:04;103210.69;;;9.22;66.86
49473;BME280;67434;50.956;6.918;2023-02-13T10:49:41;103201.38;;;9.24;66.63
49473;BME280;67434;50.956;6.918;2023-02-13T11:00:31;103197.78;;;9.53;65.80
49473;BME280;67434;50.956;6.918;2023-02-13T11:03:17;103183.59;;;9.66;65.53
49473;BME280;67434;50.956;6.918;2023-02-13T11:05:43;103193.94;;;9.62;65.96
49473;BME280;67434;50.956;6.918;2023-02-13T11:10:51;103176.03;;;9.76;65.59
49473;BME280;67434;50.956;6.918;2023-02-13T11:13:24;103192.97;;;9.85;65.31
49473;BME280;67434;50.956;6.918;2023-02-13T11:16:10;103166.97;;;9.84;64.67
49473;BME280;67434;50.956;6.918;2023-02-13T11:18:48;103168.06;;;9.89;64.74
49473;BME280;67434;50.956;6.918;2023-02-13T11:21:22;103188.13;;;10.01;64.31
49473;BME280;67434;50.956;6.918;2023-02-13T11:23:59;103159.13;;;10.10;63.88
49473;BME280;67434;50.956;6.918;2023-02-13T11:26:37;103157.31;;;10.17;63.64
49473;BME280;67434;50.956;6.918;2023-02-13T11:29:15;103159.66;;;10.20;63.31
49473;BME280;67434;50.956;6.918;2023-02-13T11:31:42;103153.91;;;10.30;63.69
49473;BME280;67434;50.956;6.918;2023-02-13T11:34:24;103157.25;;;10.32;63.26
49473;BME280;67434;50.956;6.918;2023-02-13T11:36:52;103154.78;;;10.37;63.18
49473;BME280;67434;50.956;6.918;2023-02-13T11:39:21;103141.59;;;10.49;62.99
49473;BME280;67434;50.956;6.918;2023-02-13T11:41:48;103140.34;;;10.51;62.55
49473;BME280;67434;50.956;6.918;2023-02-13T11:44:26;103151.22;;;10.58;62.16
49473;BME280;67434;50.956;6.918;2023-02-13T11:46:55;103137.50;;;10.59;61.99
49473;BME280;67434;50.956;6.918;2023-02-13T11:49:23;103133.19;;;10.72;61.66
49473;BME280;67434;50.956;6.918;2023-02-13T11:51:58;103119.53;;;10.80;61.51
49473;BME280;67434;50.956;6.918;2023-02-13T11:56:57;103116.41;;;10.83;61.18
49473;BME280;67434;50.956;6.918;2023-02-13T11:59:25;103117.28;;;10.90;61.32
49473;BME280;67434;50.956;6.918;2023-02-13T12:03:23;103096.88;;;10.94;61.08
49473;BME280;67434;50.956;6.918;2023-02-13T12:05:19;103109.84;;;11.05;61.17
49473;BME280;67434;50.956;6.918;2023-02-13T12:07:46;103126.94;;;11.12;60.95
49473;BME280;67434;50.956;6.918;2023-02-13T12:10:18;103107.41;;;11.17;60.30
49473;BME280;67434;50.956;6.918;2023-02-13T12:12:56;103096.56;;;11.17;59.91
49473;BME280;67434;50.956;6.918;2023-02-13T12:15:24;103097.41;;;11.17;60.24
49473;BME280;67434;50.956;6.918;2023-02-13T12:18:14;103091.81;;;11.25;59.78
49473;BME280;67434;50.956;6.918;2023-02-13T12:21:01;103092.03;;;11.37;59.24
49473;BME280;67434;50.956;6.918;2023-02-13T12:23:37;103087.88;;;11.41;59.09
49473;BME280;67434;50.956;6.918;2023-02-13T12:26:25;103081.22;;;11.44;58.74
49473;BME280;67434;50.956;6.918;2023-02-13T12:31:39;103076.88;;;11.69;58.69
49473;BME280;67434;50.956;6.918;2023-02-13T12:54:32;103052.53;;;12.09;57.00
49473;BME280;67434;50.956;6.918;2023-02-13T12:57:20;103057.09;;;12.15;56.73
49473;BME280;67434;50.956;6.918;2023-02-13T13:05:59;103043.97;;;12.18;56.93
49473;BME280;67434;50.956;6.918;2023-02-13T13:16:46;103032.44;;;12.43;55.57
49473;BME280;67434;50.956;6.918;2023-02-13T13:25:03;103028.84;;;12.56;54.51
49473;BME280;67434;50.956;6.918;2023-02-13T13:27:17;103023.00;;;12.59;54.56
49473;BME280;67434;50.956;6.918;2023-02-13T13:29:44;103019.84;;;12.62;53.84
49473;BME280;67434;50.956;6.918;2023-02-13T13:32:15;103019.41;;;12.71;54.32
49473;BME280;67434;50.956;6.918;2023-02-13T13:34:42;103019.38;;;12.78;53.53
49473;BME280;67434;50.956;6.918;2023-02-13T13:37:14;103014.78;;;12.78;53.29
49473;BME280;67434;50.956;6.918;2023-02-13T13:48:13;103016.97;;;13.01;52.41
49473;BME280;67434;50.956;6.918;2023-02-13T13:50:43;103003.41;;;13.01;51.72
49473;BME280;67434;50.956;6.918;2023-02-13T13:53:18;103005.06;;;13.02;51.51
49473;BME280;67434;50.956;6.918;2023-02-13T14:00:45;102990.75;;;13.20;50.83
49473;BME280;67434;50.956;6.918;2023-02-13T14:03:23;102984.88;;;13.23;51.59
49473;BME280;67434;50.956;6.918;2023-02-13T14:06:09;102994.03;;;13.29;51.40
49473;BME280;67434;50.956;6.918;2023-02-13T14:11:03;102983.56;;;13.32;50.50
49473;BME280;67434;50.956;6.918;2023-02-13T14:13:32;102987.34;;;13.31;50.83
49473;BME280;67434;50.956;6.918;2023-02-13T14:15:58;102982.28;;;13.35;50.49
49473;BME280;67434;50.956;6.918;2023-02-13T14:18:25;102985.06;;;13.28;50.51
49473;BME280;67434;50.956;6.918;2023-02-13T14:20:56;102982.72;;;13.32;50.38
49473;BME280;67434;50.956;6.918;2023-02-13T14:31:28;102977.66;;;13.42;49.86
49473;BME280;67434;50.956;6.918;2023-02-13T14:34:00;102975.38;;;13.39;49.37
49473;BME280;67434;50.956;6.918;2023-02-13T14:36:42;102977.28;;;13.38;50.01
49473;BME280;67434;50.956;6.918;2023-02-13T14:39:28;102978.09;;;13.39;49.20
49473;BME280;67434;50.956;6.918;2023-02-13T14:44:33;102969.13;;;13.38;48.56
49473;BME280;67434;50.956;6.918;2023-02-13T14:47:03;102977.69;;;13.35;48.57
49473;BME280;67434;50.956;6.918;2023-02-13T14:49:34;102974.13;;;13.35;49.47
49473;BME280;67434;50.956;6.918;2023-02-13T14:52:06;102971.44;;;13.35;49.77
49473;BME280;67434;50.956;6.918;2023-02-13T14:54:53;102975.47;;;13.26;49.68
49473;BME280;67434;50.956;6.918;2023-02-13T15:00:00;102971.91;;;13.25;50.08
49473;BME280;67434;50.956;6.918;2023-02-13T15:02:32;102965.88;;;13.23;49.96
49473;BME280;67434;50.956;6.918;2023-02-13T15:05:19;102961.53;;;13.15;50.00
49473;BME280;67434;50.956;6.918;2023-02-13T15:07:54;102964.25;;;13.15;49.77
49473;BME280;67434;50.956;6.918;2023-02-13T15:10:39;102962.72;;;13.26;49.35
49473;BME280;67434;50.956;6.918;2023-02-13T15:13:14;102957.94;;;13.22;49.89
49473;BME280;67434;50.956;6.918;2023-02-13T15:15:40;102956.09;;;13.15;49.61
49473;BME280;67434;50.956;6.918;2023-02-13T15:18:17;102953.22;;;13.10;49.75
49473;BME280;67434;50.956;6.918;2023-02-13T15:20:44;102954.25;;;13.09;49.91
49473;BME280;67434;50.956;6.918;2023-02-13T15:23:21;102954.09;;;13.04;49.85
49473;BME280;67434;50.956;6.918;2023-02-13T15:25:54;102946.94;;;13.10;49.98
49473;BME280;67434;50.956;6.918;2023-02-13T15:28:22;102948.44;;;12.99;50.33
49473;BME280;67434;50.956;6.918;2023-02-13T15:31:02;102949.56;;;12.92;50.87
49473;BME280;67434;50.956;6.918;2023-02-13T15:33:50;102950.22;;;12.87;50.87
49473;BME280;67434;50.956;6.918;2023-02-13T15:36:20;102945.84;;;12.86;50.59
49473;BME280;67434;50.956;6.918;2023-02-13T15:38:47;102949.81;;;12.83;51.37
49473;BME280;67434;50.956;6.918;2023-02-13T15:41:31;102953.22;;;12.72;51.10
49473;BME280;67434;50.956;6.918;2023-02-13T15:43:58;102955.75;;;12.67;51.14